sensor_id;sensor_type;location;lat;lon;timestamp;pressure;altitude;pressure_sealevel;temperature
70417;BMP280;57839;51.332;12.410;2023-12-28T00:00:17;99897.06;;;8.99
70417;BMP280;57839;51.332;12.410;2023-12-28T00:02:42;99891.38;;;9.01
70417;BMP280;57839;51.332;12.410;2023-12-28T00:05:08;99890.72;;;9.07
70417;BMP280;57839;51.332;12.410;2023-12-28T00:07:33;99884.31;;;9.15
70417;BMP280;57839;51.332;12.410;2023-12-28T00:09:59;99881.78;;;9.22
70417;BMP280;57839;51.332;12.410;2023-12-28T00:12:25;99885.66;;;9.28
70417;BMP280;57839;51.332;12.410;2023-12-28T00:14:50;99886.84;;;9.34
70417;BMP280;57839;51.332;12.410;2023-12-28T00:17:16;99888.09;;;9.40
70417;BMP280;57839;51.332;12.410;2023-12-28T00:19:42;99878.56;;;9.43
70417;BMP280;57839;51.332;12.410;2023-12-28T00:22:07;99867.91;;;9.46
70417;BMP280;57839;51.332;12.410;2023-12-28T00:24:33;99865.28;;;9.50
70417;BMP280;57839;51.332;12.410;2023-12-28T00:26:58;99870.25;;;9.51
70417;BMP280;57839;51.332;12.410;2023-12-28T00:29:24;99872.97;;;9.55
70417;BMP280;57839;51.332;12.410;2023-12-28T00:31:49;99867.28;;;9.56
70417;BMP280;57839;51.332;12.410;2023-12-28T00:34:15;99871.50;;;9.61
70417;BMP280;57839;51.332;12.410;2023-12-28T00:36:40;99872.28;;;9.61
70417;BMP280;57839;51.332;12.410;2023-12-28T00:39:06;99869.25;;;9.63
70417;BMP280;57839;51.332;12.410;2023-12-28T00:41:31;99878.47;;;9.66
70417;BMP280;57839;51.332;12.410;2023-12-28T00:43:57;99870.03;;;9.64
70417;BMP280;57839;51.332;12.410;2023-12-28T00:46:22;99877.69;;;9.65
70417;BMP280;57839;51.332;12.410;2023-12-28T00:48:48;99880.03;;;9.67
70417;BMP280;57839;51.332;12.410;2023-12-28T00:51:14;99882.28;;;9.65
70417;BMP280;57839;51.332;12.410;2023-12-28T00:53:40;99889.97;;;9.66
70417;BMP280;57839;51.332;12.410;2023-12-28T00:56:05;99865.44;;;9.64
70417;BMP280;57839;51.332;12.410;2023-12-28T00:58:31;99872.72;;;9.64
70417;BMP280;57839;51.332;12.410;2023-12-28T01:00:56;99869.25;;;9.63
70417;BMP280;57839;51.332;12.410;2023-12-28T01:03:23;99858.53;;;9.63
70417;BMP280;57839;51.332;12.410;2023-12-28T01:05:50;99867.31;;;9.60
70417;BMP280;57839;51.332;12.410;2023-12-28T01:08:17;99881.06;;;9.58
70417;BMP280;57839;51.332;12.410;2023-12-28T01:10:43;99873.81;;;9.59
70417;BMP280;57839;51.332;12.410;2023-12-28T01:13:09;99878.38;;;9.58
70417;BMP280;57839;51.332;12.410;2023-12-28T01:15:35;99884.84;;;9.54
70417;BMP280;57839;51.332;12.410;2023-12-28T01:18:00;99880.25;;;9.54
70417;BMP280;57839;51.332;12.410;2023-12-28T01:20:26;99874.91;;;9.54
70417;BMP280;57839;51.332;12.410;2023-12-28T01:22:51;99896.31;;;9.54
70417;BMP280;57839;51.332;12.410;2023-12-28T01:25:17;99879.81;;;9.52
70417;BMP280;57839;51.332;12.410;2023-12-28T01:27:42;99888.22;;;9.51
70417;BMP280;57839;51.332;12.410;2023-12-28T01:30:08;99882.13;;;9.50
70417;BMP280;57839;51.332;12.410;2023-12-28T01:32:34;99892.47;;;9.52
70417;BMP280;57839;51.332;12.410;2023-12-28T01:34:59;99886.00;;;9.56
70417;BMP280;57839;51.332;12.410;2023-12-28T01:37:25;99879.91;;;9.59
70417;BMP280;57839;51.332;12.410;2023-12-28T01:39:50;99901.03;;;9.65
70417;BMP280;57839;51.332;12.410;2023-12-28T01:42:16;99910.28;;;9.71
70417;BMP280;57839;51.332;12.410;2023-12-28T01:44:41;99939.38;;;9.72
70417;BMP280;57839;51.332;12.410;2023-12-28T01:47:07;99910.34;;;9.78
70417;BMP280;57839;51.332;12.410;2023-12-28T01:49:34;99918.06;;;9.83
70417;BMP280;57839;51.332;12.410;2023-12-28T01:52:01;99928.03;;;9.86
70417;BMP280;57839;51.332;12.410;2023-12-28T01:54:28;99925.75;;;9.88
70417;BMP280;57839;51.332;12.410;2023-12-28T01:56:54;99929.59;;;9.87
70417;BMP280;57839;51.332;12.410;2023-12-28T01:59:20;99899.41;;;9.90
70417;BMP280;57839;51.332;12.410;2023-12-28T02:01:46;99913.59;;;9.90
70417;BMP280;57839;51.332;12.410;2023-12-28T02:04:12;99899.47;;;9.93
70417;BMP280;57839;51.332;12.410;2023-12-28T02:06:38;99898.69;;;9.93
70417;BMP280;57839;51.332;12.410;2023-12-28T02:09:03;99896.00;;;9.93
70417;BMP280;57839;51.332;12.410;2023-12-28T02:11:29;99894.84;;;9.94
70417;BMP280;57839;51.332;12.410;2023-12-28T02:13:54;99873.03;;;9.95
70417;BMP280;57839;51.332;12.410;2023-12-28T02:16:32;99890.28;;;9.94
70417;BMP280;57839;51.332;12.410;2023-12-28T02:19:05;99886.06;;;9.97
70417;BMP280;57839;51.332;12.410;2023-12-28T02:21:39;99891.84;;;9.99
70417;BMP280;57839;51.332;12.410;2023-12-28T02:24:05;99891.47;;;10.00
70417;BMP280;57839;51.332;12.410;2023-12-28T02:26:30;99874.63;;;10.00
70417;BMP280;57839;51.332;12.410;2023-12-28T02:28:56;99871.22;;;10.03
70417;BMP280;57839;51.332;12.410;2023-12-28T02:31:28;99859.34;;;10.04
70417;BMP280;57839;51.332;12.410;2023-12-28T02:33:59;99850.97;;;10.05
70417;BMP280;57839;51.332;12.410;2023-12-28T02:36:28;99866.66;;;10.07
70417;BMP280;57839;51.332;12.410;2023-12-28T02:38:55;99850.97;;;10.09
70417;BMP280;57839;51.332;12.410;2023-12-28T02:41:22;99852.16;;;10.11
70417;BMP280;57839;51.332;12.410;2023-12-28T02:43:48;99851.78;;;10.13
70417;BMP280;57839;51.332;12.410;2023-12-28T02:46:13;99859.81;;;10.13
70417;BMP280;57839;51.332;12.410;2023-12-28T02:48:39;99864.06;;;10.14
70417;BMP280;57839;51.332;12.410;2023-12-28T02:51:05;99865.25;;;10.20
70417;BMP280;57839;51.332;12.410;2023-12-28T02:53:30;99862.94;;;10.18
70417;BMP280;57839;51.332;12.410;2023-12-28T02:55:56;99872.13;;;10.21
70417;BMP280;57839;51.332;12.410;2023-12-28T02:58:21;99897.44;;;10.23
70417;BMP280;57839;51.332;12.410;2023-12-28T03:00:47;99874.88;;;10.28
70417;BMP280;57839;51.332;12.410;2023-12-28T03:03:14;99869.19;;;10.33
70417;BMP280;57839;51.332;12.410;2023-12-28T03:05:39;99895.63;;;10.38
70417;BMP280;57839;51.332;12.410;2023-12-28T03:08:06;99879.25;;;10.43
70417;BMP280;57839;51.332;12.410;2023-12-28T03:10:32;99875.44;;;10.48
70417;BMP280;57839;51.332;12.410;2023-12-28T03:12:57;99867.81;;;10.50
70417;BMP280;57839;51.332;12.410;2023-12-28T03:15:23;99871.69;;;10.56
70417;BMP280;57839;51.332;12.410;2023-12-28T03:17:48;99858.28;;;10.59
70417;BMP280;57839;51.332;12.410;2023-12-28T03:20:14;99893.56;;;10.61
70417;BMP280;57839;51.332;12.410;2023-12-28T03:22:40;99876.72;;;10.64
70417;BMP280;57839;51.332;12.410;2023-12-28T03:25:06;99867.94;;;10.67
70417;BMP280;57839;51.332;12.410;2023-12-28T03:27:31;99872.16;;;10.72
70417;BMP280;57839;51.332;12.410;2023-12-28T03:29:57;99848.00;;;10.68
70417;BMP280;57839;51.332;12.410;2023-12-28T03:32:23;99881.72;;;10.69
70417;BMP280;57839;51.332;12.410;2023-12-28T03:34:48;99860.66;;;10.71
70417;BMP280;57839;51.332;12.410;2023-12-28T03:37:14;99868.75;;;10.75
70417;BMP280;57839;51.332;12.410;2023-12-28T03:39:39;99879.13;;;10.76
70417;BMP280;57839;51.332;12.410;2023-12-28T03:42:05;99870.31;;;10.79
70417;BMP280;57839;51.332;12.410;2023-12-28T03:44:30;99876.84;;;10.82
70417;BMP280;57839;51.332;12.410;2023-12-28T03:46:56;99870.72;;;10.81
70417;BMP280;57839;51.332;12.410;2023-12-28T03:49:22;99894.84;;;10.81
70417;BMP280;57839;51.332;12.410;2023-12-28T03:51:49;99889.88;;;10.83
70417;BMP280;57839;51.332;12.410;2023-12-28T03:54:18;99908.28;;;10.85
70417;BMP280;57839;51.332;12.410;2023-12-28T03:56:47;99927.47;;;10.87
70417;BMP280;57839;51.332;12.410;2023-12-28T03:59:13;99914.81;;;10.87
70417;BMP280;57839;51.332;12.410;2023-12-28T04:01:40;99925.56;;;10.87
70417;BMP280;57839;51.332;12.410;2023-12-28T04:04:06;99913.66;;;10.88
70417;BMP280;57839;51.332;12.410;2023-12-28T04:06:31;99919.47;;;10.90
70417;BMP280;57839;51.332;12.410;2023-12-28T04:08:57;99925.94;;;10.89
70417;BMP280;57839;51.332;12.410;2023-12-28T04:11:23;99917.13;;;10.89
70417;BMP280;57839;51.332;12.410;2023-12-28T04:13:48;99909.47;;;10.87
70417;BMP280;57839;51.332;12.410;2023-12-28T04:16:14;99924.00;;;10.86
70417;BMP280;57839;51.332;12.410;2023-12-28T04:18:41;99942.78;;;10.86
70417;BMP280;57839;51.332;12.410;2023-12-28T04:21:13;99936.28;;;10.87
70417;BMP280;57839;51.332;12.410;2023-12-28T04:23:39;99956.22;;;10.86
70417;BMP280;57839;51.332;12.410;2023-12-28T04:26:05;99940.09;;;10.86
70417;BMP280;57839;51.332;12.410;2023-12-28T04:28:31;99947.03;;;10.87
70417;BMP280;57839;51.332;12.410;2023-12-28T04:31:05;99951.97;;;10.85
70417;BMP280;57839;51.332;12.410;2023-12-28T04:33:31;99950.50;;;10.88
70417;BMP280;57839;51.332;12.410;2023-12-28T04:36:00;99969.25;;;10.84
70417;BMP280;57839;51.332;12.410;2023-12-28T04:38:26;99957.34;;;10.85
70417;BMP280;57839;51.332;12.410;2023-12-28T04:40:51;99972.34;;;10.90
70417;BMP280;57839;51.332;12.410;2023-12-28T04:43:17;99974.63;;;10.88
70417;BMP280;57839;51.332;12.410;2023-12-28T04:45:43;99966.97;;;10.90
70417;BMP280;57839;51.332;12.410;2023-12-28T04:48:09;99968.13;;;10.89
70417;BMP280;57839;51.332;12.410;2023-12-28T04:50:34;99989.59;;;10.92
70417;BMP280;57839;51.332;12.410;2023-12-28T04:53:00;99977.00;;;10.96
70417;BMP280;57839;51.332;12.410;2023-12-28T04:55:26;99978.97;;;10.99
70417;BMP280;57839;51.332;12.410;2023-12-28T04:57:51;99958.22;;;10.96
70417;BMP280;57839;51.332;12.410;2023-12-28T05:00:17;99957.44;;;10.96
70417;BMP280;57839;51.332;12.410;2023-12-28T05:02:42;99965.50;;;10.96
70417;BMP280;57839;51.332;12.410;2023-12-28T05:05:08;99977.00;;;10.96
70417;BMP280;57839;51.332;12.410;2023-12-28T05:07:35;99982.72;;;10.95
70417;BMP280;57839;51.332;12.410;2023-12-28T05:10:01;99973.59;;;10.99
70417;BMP280;57839;51.332;12.410;2023-12-28T05:12:26;99987.78;;;11.00
70417;BMP280;57839;51.332;12.410;2023-12-28T05:14:52;99981.63;;;10.99
70417;BMP280;57839;51.332;12.410;2023-12-28T05:17:18;99998.09;;;10.98
70417;BMP280;57839;51.332;12.410;2023-12-28T05:19:43;100005.38;;;10.97
70417;BMP280;57839;51.332;12.410;2023-12-28T05:22:09;99995.44;;;11.01
70417;BMP280;57839;51.332;12.410;2023-12-28T05:24:36;99987.38;;;11.01
70417;BMP280;57839;51.332;12.410;2023-12-28T05:27:02;100000.47;;;11.06
70417;BMP280;57839;51.332;12.410;2023-12-28T05:29:28;100015.03;;;11.05
70417;BMP280;57839;51.332;12.410;2023-12-28T05:31:53;100028.81;;;11.04
70417;BMP280;57839;51.332;12.410;2023-12-28T05:34:19;100024.22;;;11.04
70417;BMP280;57839;51.332;12.410;2023-12-28T05:36:44;100029.25;;;11.06
70417;BMP280;57839;51.332;12.410;2023-12-28T05:39:11;100032.28;;;11.04
70417;BMP280;57839;51.332;12.410;2023-12-28T05:41:39;100020.81;;;11.07
70417;BMP280;57839;51.332;12.410;2023-12-28T05:44:05;100016.97;;;11.08
70417;BMP280;57839;51.332;12.410;2023-12-28T05:46:31;100014.66;;;11.07
70417;BMP280;57839;51.332;12.410;2023-12-28T05:48:57;100030.38;;;11.08
70417;BMP280;57839;51.332;12.410;2023-12-28T05:51:22;100030.00;;;11.06
70417;BMP280;57839;51.332;12.410;2023-12-28T05:53:47;100034.97;;;11.04
70417;BMP280;57839;51.332;12.410;2023-12-28T05:56:13;100029.19;;;11.02
70417;BMP280;57839;51.332;12.410;2023-12-28T05:58:39;100042.25;;;11.04
70417;BMP280;57839;51.332;12.410;2023-12-28T06:01:04;100042.97;;;11.01
70417;BMP280;57839;51.332;12.410;2023-12-28T06:03:33;100067.13;;;11.01
70417;BMP280;57839;51.332;12.410;2023-12-28T06:05:58;100064.41;;;10.97
70417;BMP280;57839;51.332;12.410;2023-12-28T06:08:24;100052.56;;;10.98
70417;BMP280;57839;51.332;12.410;2023-12-28T06:10:49;100041.41;;;10.96
70417;BMP280;57839;51.332;12.410;2023-12-28T06:13:15;100022.63;;;10.96
70417;BMP280;57839;51.332;12.410;2023-12-28T06:15:41;100014.16;;;10.94
70417;BMP280;57839;51.332;12.410;2023-12-28T06:18:06;100019.16;;;10.96
70417;BMP280;57839;51.332;12.410;2023-12-28T06:20:32;100011.94;;;11.00
70417;BMP280;57839;51.332;12.410;2023-12-28T06:22:57;100022.28;;;11.01
70417;BMP280;57839;51.332;12.410;2023-12-28T06:25:23;100028.41;;;11.02
70417;BMP280;57839;51.332;12.410;2023-12-28T06:27:48;100021.50;;;11.01
70417;BMP280;57839;51.332;12.410;2023-12-28T06:30:14;100012.72;;;11.04
70417;BMP280;57839;51.332;12.410;2023-12-28T06:32:40;100018.78;;;10.97
70417;BMP280;57839;51.332;12.410;2023-12-28T06:35:06;100032.94;;;10.94
70417;BMP280;57839;51.332;12.410;2023-12-28T06:37:31;100027.16;;;10.89
70417;BMP280;57839;51.332;12.410;2023-12-28T06:39:57;100045.59;;;10.90
70417;BMP280;57839;51.332;12.410;2023-12-28T06:42:22;100058.56;;;10.85
70417;BMP280;57839;51.332;12.410;2023-12-28T06:44:48;100045.88;;;10.85
70417;BMP280;57839;51.332;12.410;2023-12-28T06:47:13;100051.25;;;10.85
70417;BMP280;57839;51.332;12.410;2023-12-28T06:49:39;100049.75;;;10.84
70417;BMP280;57839;51.332;12.410;2023-12-28T06:52:04;100054.72;;;10.86
70417;BMP280;57839;51.332;12.410;2023-12-28T06:54:30;100045.13;;;10.85
70417;BMP280;57839;51.332;12.410;2023-12-28T06:56:56;100057.03;;;10.84
70417;BMP280;57839;51.332;12.410;2023-12-28T06:59:21;100050.50;;;10.85
70417;BMP280;57839;51.332;12.410;2023-12-28T07:01:47;100051.63;;;10.80
70417;BMP280;57839;51.332;12.410;2023-12-28T07:04:14;100051.59;;;10.77
70417;BMP280;57839;51.332;12.410;2023-12-28T07:06:40;100050.44;;;10.78
70417;BMP280;57839;51.332;12.410;2023-12-28T07:09:05;100064.25;;;10.76
70417;BMP280;57839;51.332;12.410;2023-12-28T07:11:31;100055.81;;;10.78
70417;BMP280;57839;51.332;12.410;2023-12-28T07:13:56;100043.56;;;10.80
70417;BMP280;57839;51.332;12.410;2023-12-28T07:16:22;100042.03;;;10.79
70417;BMP280;57839;51.332;12.410;2023-12-28T07:18:47;100041.59;;;10.77
70417;BMP280;57839;51.332;12.410;2023-12-28T07:21:13;100047.38;;;10.76
70417;BMP280;57839;51.332;12.410;2023-12-28T07:23:38;100053.53;;;10.80
70417;BMP280;57839;51.332;12.410;2023-12-28T07:26:04;100065.03;;;10.80
70417;BMP280;57839;51.332;12.410;2023-12-28T07:28:30;100070.78;;;10.79
70417;BMP280;57839;51.332;12.410;2023-12-28T07:30:56;100061.56;;;10.80
70417;BMP280;57839;51.332;12.410;2023-12-28T07:33:21;100060.81;;;10.79
70417;BMP280;57839;51.332;12.410;2023-12-28T07:35:47;100063.13;;;10.81
70417;BMP280;57839;51.332;12.410;2023-12-28T07:38:12;100056.97;;;10.80
70417;BMP280;57839;51.332;12.410;2023-12-28T07:40:38;100054.69;;;10.79
70417;BMP280;57839;51.332;12.410;2023-12-28T07:43:03;100056.56;;;10.75
70417;BMP280;57839;51.332;12.410;2023-12-28T07:45:29;100061.53;;;10.73
70417;BMP280;57839;51.332;12.410;2023-12-28T07:47:56;100048.84;;;10.70
70417;BMP280;57839;51.332;12.410;2023-12-28T07:50:21;100061.88;;;10.71
70417;BMP280;57839;51.332;12.410;2023-12-28T07:52:48;100081.81;;;10.70
70417;BMP280;57839;51.332;12.410;2023-12-28T07:55:14;100084.09;;;10.68
70417;BMP280;57839;51.332;12.410;2023-12-28T07:57:39;100081.81;;;10.70
70417;BMP280;57839;51.332;12.410;2023-12-28T08:00:07;100084.81;;;10.65
70417;BMP280;57839;51.332;12.410;2023-12-28T08:02:33;100095.56;;;10.69
70417;BMP280;57839;51.332;12.410;2023-12-28T08:04:59;100092.50;;;10.67
70417;BMP280;57839;51.332;12.410;2023-12-28T08:07:24;100093.28;;;10.67
70417;BMP280;57839;51.332;12.410;2023-12-28T08:09:50;100095.56;;;10.69
70417;BMP280;57839;51.332;12.410;2023-12-28T08:12:16;100107.00;;;10.62
70417;BMP280;57839;51.332;12.410;2023-12-28T08:14:43;100091.69;;;10.63
70417;BMP280;57839;51.332;12.410;2023-12-28T08:17:08;100095.13;;;10.63
70417;BMP280;57839;51.332;12.410;2023-12-28T08:19:34;100088.22;;;10.62
70417;BMP280;57839;51.332;12.410;2023-12-28T08:21:59;100090.13;;;10.62
70417;BMP280;57839;51.332;12.410;2023-12-28T08:24:25;100089.78;;;10.63
70417;BMP280;57839;51.332;12.410;2023-12-28T08:26:50;100090.91;;;10.62
70417;BMP280;57839;51.332;12.410;2023-12-28T08:29:16;100105.88;;;10.63
70417;BMP280;57839;51.332;12.410;2023-12-28T08:31:43;100106.22;;;10.62
70417;BMP280;57839;51.332;12.410;2023-12-28T08:34:08;100100.84;;;10.62
70417;BMP280;57839;51.332;12.410;2023-12-28T08:36:34;100118.47;;;10.59
70417;BMP280;57839;51.332;12.410;2023-12-28T08:39:00;100128.81;;;10.57
70417;BMP280;57839;51.332;12.410;2023-12-28T08:41:25;100127.63;;;10.55
70417;BMP280;57839;51.332;12.410;2023-12-28T08:43:52;100128.03;;;10.57
70417;BMP280;57839;51.332;12.410;2023-12-28T08:46:21;100126.50;;;10.56
70417;BMP280;57839;51.332;12.410;2023-12-28T08:48:47;100134.53;;;10.56
70417;BMP280;57839;51.332;12.410;2023-12-28T08:51:12;100141.03;;;10.55
70417;BMP280;57839;51.332;12.410;2023-12-28T08:53:40;100133.75;;;10.55
70417;BMP280;57839;51.332;12.410;2023-12-28T08:56:20;100132.97;;;10.55
70417;BMP280;57839;51.332;12.410;2023-12-28T08:58:46;100137.91;;;10.49
70417;BMP280;57839;51.332;12.410;2023-12-28T09:01:17;100147.06;;;10.48
70417;BMP280;57839;51.332;12.410;2023-12-28T09:03:43;100138.59;;;10.43
70417;BMP280;57839;51.332;12.410;2023-12-28T09:06:09;100152.78;;;10.43
70417;BMP280;57839;51.332;12.410;2023-12-28T09:08:35;100147.75;;;10.42
70417;BMP280;57839;51.332;12.410;2023-12-28T09:11:00;100139.72;;;10.42
70417;BMP280;57839;51.332;12.410;2023-12-28T09:13:26;100147.41;;;10.43
70417;BMP280;57839;51.332;12.410;2023-12-28T09:15:51;100149.34;;;10.46
70417;BMP280;57839;51.332;12.410;2023-12-28T09:18:17;100156.63;;;10.46
70417;BMP280;57839;51.332;12.410;2023-12-28T09:20:42;100153.16;;;10.45
70417;BMP280;57839;51.332;12.410;2023-12-28T09:23:08;100150.88;;;10.44
70417;BMP280;57839;51.332;12.410;2023-12-28T09:25:36;100150.81;;;10.40
70417;BMP280;57839;51.332;12.410;2023-12-28T09:28:04;100146.16;;;10.37
70417;BMP280;57839;51.332;12.410;2023-12-28T09:30:30;100133.53;;;10.38
70417;BMP280;57839;51.332;12.410;2023-12-28T09:32:56;100128.94;;;10.38
70417;BMP280;57839;51.332;12.410;2023-12-28T09:35:21;100141.59;;;10.38
70417;BMP280;57839;51.332;12.410;2023-12-28T09:37:47;100125.91;;;10.40
70417;BMP280;57839;51.332;12.410;2023-12-28T09:40:12;100120.94;;;10.42
70417;BMP280;57839;51.332;12.410;2023-12-28T09:42:46;100131.31;;;10.43
70417;BMP280;57839;51.332;12.410;2023-12-28T09:45:15;100152.78;;;10.43
70417;BMP280;57839;51.332;12.410;2023-12-28T09:47:41;100126.69;;;10.40
70417;BMP280;57839;51.332;12.410;2023-12-28T09:50:11;100143.59;;;10.44
70417;BMP280;57839;51.332;12.410;2023-12-28T09:52:38;100120.19;;;10.45
70417;BMP280;57839;51.332;12.410;2023-12-28T09:55:03;100151.25;;;10.46
70417;BMP280;57839;51.332;12.410;2023-12-28T09:57:29;100127.13;;;10.46
70417;BMP280;57839;51.332;12.410;2023-12-28T09:59:55;100122.88;;;10.45
70417;BMP280;57839;51.332;12.410;2023-12-28T10:02:23;100120.63;;;10.47
70417;BMP280;57839;51.332;12.410;2023-12-28T10:04:48;100134.06;;;10.50
70417;BMP280;57839;51.332;12.410;2023-12-28T10:07:14;100141.38;;;10.50
70417;BMP280;57839;51.332;12.410;2023-12-28T10:09:39;100130.25;;;10.51
70417;BMP280;57839;51.332;12.410;2023-12-28T10:12:05;100125.69;;;10.52
70417;BMP280;57839;51.332;12.410;2023-12-28T10:14:31;100132.97;;;10.55
70417;BMP280;57839;51.332;12.410;2023-12-28T10:16:57;100139.91;;;10.56
70417;BMP280;57839;51.332;12.410;2023-12-28T10:19:22;100136.44;;;10.55
70417;BMP280;57839;51.332;12.410;2023-12-28T10:21:48;100139.91;;;10.56
70417;BMP280;57839;51.332;12.410;2023-12-28T10:24:14;100131.09;;;10.59
70417;BMP280;57839;51.332;12.410;2023-12-28T10:26:39;100148.00;;;10.63
70417;BMP280;57839;51.332;12.410;2023-12-28T10:29:05;100128.09;;;10.64
70417;BMP280;57839;51.332;12.410;2023-12-28T10:31:31;100125.06;;;10.65
70417;BMP280;57839;51.332;12.410;2023-12-28T10:33:59;100121.66;;;10.72
70417;BMP280;57839;51.332;12.410;2023-12-28T10:36:27;100127.03;;;10.72
70417;BMP280;57839;51.332;12.410;2023-12-28T10:38:53;100127.47;;;10.77
70417;BMP280;57839;51.332;12.410;2023-12-28T10:41:19;100140.94;;;10.81
70417;BMP280;57839;51.332;12.410;2023-12-28T10:43:53;100144.47;;;10.88
70417;BMP280;57839;51.332;12.410;2023-12-28T10:46:27;100166.91;;;11.06
70417;BMP280;57839;51.332;12.410;2023-12-28T10:48:58;100148.66;;;11.23
70417;BMP280;57839;51.332;12.410;2023-12-28T10:51:25;100141.94;;;11.46
70417;BMP280;57839;51.332;12.410;2023-12-28T10:56:59;100146.44;;;11.89
70417;BMP280;57839;51.332;12.410;2023-12-28T11:01:59;100147.50;;;12.43
70417;BMP280;57839;51.332;12.410;2023-12-28T11:04:44;100146.75;;;12.53
70417;BMP280;57839;51.332;12.410;2023-12-28T11:07:10;100151.47;;;12.77
70417;BMP280;57839;51.332;12.410;2023-12-28T11:09:43;100153.03;;;13.03
70417;BMP280;57839;51.332;12.410;2023-12-28T11:12:09;100149.19;;;13.28
70417;BMP280;57839;51.332;12.410;2023-12-28T11:14:41;100154.97;;;13.44
70417;BMP280;57839;51.332;12.410;2023-12-28T11:17:09;100152.63;;;13.68
70417;BMP280;57839;51.332;12.410;2023-12-28T11:19:35;100169.56;;;13.75
70417;BMP280;57839;51.332;12.410;2023-12-28T11:22:03;100153.00;;;13.84
70417;BMP280;57839;51.332;12.410;2023-12-28T11:24:29;100144.50;;;13.82
70417;BMP280;57839;51.332;12.410;2023-12-28T11:26:56;100147.25;;;13.75
70417;BMP280;57839;51.332;12.410;2023-12-28T11:29:23;100119.94;;;13.51
70417;BMP280;57839;51.332;12.410;2023-12-28T11:31:52;100119.56;;;13.42
70417;BMP280;57839;51.332;12.410;2023-12-28T11:34:18;100117.66;;;13.36
70417;BMP280;57839;51.332;12.410;2023-12-28T11:36:48;100100.69;;;13.28
70417;BMP280;57839;51.332;12.410;2023-12-28T11:39:23;100124.16;;;13.31
70417;BMP280;57839;51.332;12.410;2023-12-28T11:42:02;100107.22;;;13.38
70417;BMP280;57839;51.332;12.410;2023-12-28T11:44:29;100116.09;;;13.45
70417;BMP280;57839;51.332;12.410;2023-12-28T11:46:55;100103.00;;;13.47
70417;BMP280;57839;51.332;12.410;2023-12-28T11:49:25;100103.38;;;13.60
70417;BMP280;57839;51.332;12.410;2023-12-28T11:51:58;100092.91;;;13.73
70417;BMP280;57839;51.332;12.410;2023-12-28T11:54:25;100089.78;;;13.95
70417;BMP280;57839;51.332;12.410;2023-12-28T11:56:51;100092.06;;;14.04
70417;BMP280;57839;51.332;12.410;2023-12-28T11:59:18;100100.91;;;14.08
70417;BMP280;57839;51.332;12.410;2023-12-28T12:01:49;100088.91;;;14.16
70417;BMP280;57839;51.332;12.410;2023-12-28T12:04:15;100093.91;;;14.21
70417;BMP280;57839;51.332;12.410;2023-12-28T12:06:40;100117.81;;;14.22
70417;BMP280;57839;51.332;12.410;2023-12-28T12:09:06;100094.19;;;14.40
70417;BMP280;57839;51.332;12.410;2023-12-28T12:11:32;100094.09;;;14.58
70417;BMP280;57839;51.332;12.410;2023-12-28T12:13:57;100095.94;;;14.65
70417;BMP280;57839;51.332;12.410;2023-12-28T12:16:23;100103.59;;;14.73
70417;BMP280;57839;51.332;12.410;2023-12-28T12:18:48;100102.41;;;14.78
70417;BMP280;57839;51.332;12.410;2023-12-28T12:21:14;100099.72;;;14.81
70417;BMP280;57839;51.332;12.410;2023-12-28T12:23:39;100103.53;;;14.84
70417;BMP280;57839;51.332;12.410;2023-12-28T12:26:07;100109.69;;;14.84
70417;BMP280;57839;51.332;12.410;2023-12-28T12:28:32;100091.16;;;14.83
70417;BMP280;57839;51.332;12.410;2023-12-28T12:30:58;100096.13;;;14.91
70417;BMP280;57839;51.332;12.410;2023-12-28T12:33:27;100091.03;;;15.00
70417;BMP280;57839;51.332;12.410;2023-12-28T12:35:53;100089.44;;;15.06
70417;BMP280;57839;51.332;12.410;2023-12-28T12:38:18;100094.75;;;15.17
70417;BMP280;57839;51.332;12.410;2023-12-28T12:40:44;100083.94;;;15.17
70417;BMP280;57839;51.332;12.410;2023-12-28T12:43:10;100098.16;;;15.24
70417;BMP280;57839;51.332;12.410;2023-12-28T12:45:35;100085.75;;;15.30
70417;BMP280;57839;51.332;12.410;2023-12-28T12:48:05;100087.97;;;15.39
70417;BMP280;57839;51.332;12.410;2023-12-28T12:50:34;100116.03;;;15.11
70417;BMP280;57839;51.332;12.410;2023-12-28T12:53:00;100097.22;;;15.01
70417;BMP280;57839;51.332;12.410;2023-12-28T12:55:26;100102.94;;;15.06
70417;BMP280;57839;51.332;12.410;2023-12-28T12:57:52;100099.09;;;15.07
70417;BMP280;57839;51.332;12.410;2023-12-28T13:00:21;100089.50;;;14.99
70417;BMP280;57839;51.332;12.410;2023-12-28T13:02:47;100091.28;;;15.16
70417;BMP280;57839;51.332;12.410;2023-12-28T13:05:12;100111.03;;;15.10
70417;BMP280;57839;51.332;12.410;2023-12-28T13:07:38;100084.78;;;15.10
70417;BMP280;57839;51.332;12.410;2023-12-28T13:10:04;100098.59;;;15.19
70417;BMP280;57839;51.332;12.410;2023-12-28T13:12:31;100079.88;;;15.35
70417;BMP280;57839;51.332;12.410;2023-12-28T13:14:56;100098.41;;;15.41
70417;BMP280;57839;51.332;12.410;2023-12-28T13:17:22;100082.88;;;15.48
70417;BMP280;57839;51.332;12.410;2023-12-28T13:19:47;100083.31;;;15.43
70417;BMP280;57839;51.332;12.410;2023-12-28T13:22:13;100078.25;;;15.45
70417;BMP280;57839;51.332;12.410;2023-12-28T13:24:38;100073.97;;;15.48
70417;BMP280;57839;51.332;12.410;2023-12-28T13:27:04;100077.41;;;15.52
70417;BMP280;57839;51.332;12.410;2023-12-28T13:29:29;100073.47;;;15.56
70417;BMP280;57839;51.332;12.410;2023-12-28T13:31:55;100070.03;;;15.56
70417;BMP280;57839;51.332;12.410;2023-12-28T13:34:21;100072.72;;;15.56
70417;BMP280;57839;51.332;12.410;2023-12-28T13:36:48;100074.94;;;15.30
70417;BMP280;57839;51.332;12.410;2023-12-28T13:39:14;100061.81;;;15.29
70417;BMP280;57839;51.332;12.410;2023-12-28T13:41:40;100051.06;;;15.25
70417;BMP280;57839;51.332;12.410;2023-12-28T13:44:06;100052.16;;;15.31
70417;BMP280;57839;51.332;12.410;2023-12-28T13:46:36;100072.59;;;15.32
70417;BMP280;57839;51.332;12.410;2023-12-28T13:49:01;100081.13;;;15.27
70417;BMP280;57839;51.332;12.410;2023-12-28T13:51:29;100070.81;;;15.19